createdAt,value
2019-02-08T16:53:09.684Z,3.47
2019-02-08T16:55:38.043Z,5.40
2019-02-08T16:58:06.328Z,5.62
2019-02-08T17:00:36.251Z,4.75
2019-02-08T17:03:05.443Z,7.80
2019-02-08T17:05:33.965Z,8.75
2019-02-08T17:08:01.951Z,7.78
2019-02-08T17:10:30.271Z,6.55
2019-02-08T17:12:58.518Z,6.62
2019-02-08T17:15:30.516Z,7.15
2019-02-08T17:17:58.867Z,7.57
2019-02-08T17:20:31.862Z,12.37
2019-02-08T17:23:00.435Z,5.20
2019-02-08T17:25:28.705Z,5.47
2019-02-08T17:27:56.980Z,5.62
2019-02-08T17:30:25.245Z,5.97
2019-02-08T17:32:53.536Z,7.07
2019-02-08T17:35:22.725Z,5.68
2019-02-08T17:37:51.938Z,4.97
2019-02-08T17:40:29.217Z,8.15
2019-02-08T17:42:57.603Z,6.18
2019-02-08T17:45:25.863Z,4.70
2019-02-08T17:47:54.129Z,5.53
2019-02-08T17:50:25.333Z,7.40
2019-02-08T17:52:53.678Z,6.70
2019-02-08T17:55:21.949Z,7.33
2019-02-08T17:57:50.204Z,9.30
2019-02-08T18:00:30.763Z,5.23
2019-02-08T18:02:59.043Z,6.57
2019-02-08T18:05:27.314Z,7.03
2019-02-08T18:07:55.592Z,9.43
2019-02-08T18:10:23.849Z,9.57
2019-02-08T18:12:52.135Z,11.15
2019-02-08T18:15:21.366Z,12.05
2019-02-08T18:17:49.659Z,11.43
2019-02-08T18:20:23.918Z,11.35
2019-02-08T18:22:52.227Z,12.18
2019-02-08T18:25:20.499Z,19.08
2019-02-08T18:27:48.786Z,19.90
2019-02-08T18:30:19.819Z,19.37
2019-02-08T18:32:48.199Z,22.30
2019-02-08T18:35:16.568Z,14.40
2019-02-08T18:37:44.952Z,17.55
2019-02-08T18:40:13.890Z,9.73
2019-02-08T18:42:43.039Z,10.15
2019-02-08T18:45:12.206Z,8.57
2019-02-08T18:47:40.482Z,8.85
2019-02-08T18:50:10.523Z,9.30
2019-02-08T18:52:38.907Z,11.60
2019-02-08T18:55:07.283Z,12.90
2019-02-08T18:57:35.665Z,17.15
2019-02-08T19:00:03.947Z,18.65
2019-02-08T19:02:32.205Z,19.40
2019-02-08T19:05:00.481Z,21.73
2019-02-08T19:07:28.739Z,19.53
2019-02-08T19:09:57.035Z,17.40
2019-02-08T19:12:25.325Z,16.00
2019-02-08T19:14:53.610Z,11.98
2019-02-08T19:17:21.899Z,16.80
2019-02-08T19:19:50.179Z,14.52
2019-02-08T19:22:19.338Z,18.50
2019-02-08T19:24:47.635Z,19.45
2019-02-08T19:27:15.918Z,24.23
2019-02-08T19:29:44.202Z,22.52
2019-02-08T19:32:13.243Z,25.95
2019-02-08T19:34:41.543Z,17.08
2019-02-08T19:37:09.819Z,17.80
2019-02-08T19:39:38.107Z,15.10
2019-02-08T19:42:06.378Z,15.45
2019-02-08T19:44:34.663Z,15.68
2019-02-08T19:47:03.714Z,16.75
2019-02-08T19:49:31.995Z,19.23
2019-02-08T19:52:00.282Z,18.20
2019-02-08T19:54:28.597Z,21.12
2019-02-08T19:56:56.882Z,25.08
2019-02-08T19:59:25.435Z,22.95
2019-02-08T20:01:53.724Z,21.02
2019-02-08T20:04:22.783Z,28.20
2019-02-08T20:06:51.061Z,24.17
2019-02-08T20:09:19.366Z,22.60
2019-02-08T20:11:48.441Z,26.37
2019-02-08T20:14:16.745Z,30.37
2019-02-08T20:16:45.789Z,25.42
2019-02-08T20:19:14.060Z,23.23
2019-02-08T20:21:42.334Z,22.42
2019-02-08T20:24:10.636Z,21.05
2019-02-08T20:26:38.933Z,19.23
2019-02-08T20:29:07.993Z,19.65
2019-02-08T20:31:36.282Z,20.08
2019-02-08T20:34:04.743Z,19.20
2019-02-08T20:36:33.118Z,19.58
2019-02-08T20:39:01.418Z,15.35
2019-02-08T20:41:29.771Z,18.17
2019-02-08T20:43:58.547Z,18.23
2019-02-08T20:46:26.842Z,20.23
2019-02-08T20:48:55.123Z,20.52
2019-02-08T20:51:23.428Z,21.55
2019-02-08T20:53:52.475Z,20.17
2019-02-08T20:56:20.778Z,17.55
2019-02-08T20:58:50.305Z,19.83
2019-02-08T21:01:17.322Z,18.65
2019-02-08T21:03:45.603Z,16.70
2019-02-08T21:06:13.862Z,21.23
2019-02-08T21:08:42.123Z,21.53
2019-02-08T21:11:10.423Z,17.98
2019-02-08T21:13:38.795Z,18.10
2019-02-08T21:16:07.081Z,16.87
2019-02-08T21:18:35.350Z,11.12
2019-02-08T21:21:03.626Z,9.88
2019-02-08T21:23:32.095Z,8.77
2019-02-08T21:26:00.570Z,7.62
2019-02-08T21:28:28.867Z,10.40
2019-02-08T21:30:57.142Z,9.70
2019-02-08T21:33:25.561Z,9.15
2019-02-08T21:35:53.872Z,12.35
2019-02-08T21:38:22.147Z,10.70
2019-02-08T21:40:50.439Z,11.23
2019-02-08T21:43:18.694Z,11.83
2019-02-08T21:45:47.094Z,13.00
2019-02-08T21:48:15.375Z,14.13
2019-02-08T21:50:43.664Z,12.57
2019-02-08T21:53:11.959Z,11.38
2019-02-08T21:55:40.246Z,12.63
2019-02-08T21:58:08.519Z,12.05
2019-02-08T22:00:36.880Z,12.63
2019-02-08T22:03:05.101Z,13.43
2019-02-08T22:05:34.099Z,14.57
2019-02-08T22:08:02.397Z,15.63
2019-02-08T22:10:30.650Z,14.90
2019-02-08T22:12:59.740Z,14.00
2019-02-08T22:15:28.899Z,15.98
2019-02-08T22:17:57.177Z,15.23
2019-02-08T22:20:26.191Z,13.43
2019-02-08T22:22:54.477Z,18.27
2019-02-08T22:25:23.565Z,15.45
2019-02-08T22:27:51.958Z,16.30
2019-02-08T22:30:20.343Z,14.50
2019-02-08T22:32:48.643Z,18.75
2019-02-08T22:35:17.691Z,15.18
2019-02-08T22:37:45.982Z,15.32
2019-02-08T22:40:15.075Z,16.20
2019-02-08T22:42:43.359Z,14.27
2019-02-08T22:45:11.636Z,15.13
2019-02-08T22:47:39.919Z,14.15
2019-02-08T22:50:08.198Z,14.27
2019-02-08T22:52:36.484Z,14.50
2019-02-08T22:55:04.727Z,13.77
2019-02-08T22:57:32.992Z,14.10
2019-02-08T23:00:01.270Z,15.52
2019-02-08T23:02:29.566Z,14.52
2019-02-08T23:04:57.838Z,14.38
2019-02-08T23:07:26.131Z,15.18
2019-02-08T23:09:54.472Z,14.95
2019-02-08T23:12:23.081Z,16.15
2019-02-08T23:14:51.371Z,14.80
2019-02-08T23:17:20.541Z,15.13
2019-02-08T23:19:48.827Z,15.57
2019-02-08T23:22:17.110Z,14.73
2019-02-08T23:24:49.224Z,13.77
2019-02-08T23:27:17.774Z,13.68
2019-02-08T23:29:46.094Z,13.87
2019-02-08T23:32:14.485Z,13.52
2019-02-08T23:34:42.767Z,14.38
2019-02-08T23:37:11.043Z,13.60
2019-02-08T23:39:39.326Z,14.05
2019-02-08T23:42:07.683Z,13.23
2019-02-08T23:44:35.963Z,15.20
2019-02-08T23:47:04.342Z,16.48
2019-02-08T23:49:32.711Z,14.48
2019-02-08T23:52:01.098Z,13.55
2019-02-08T23:54:29.386Z,12.23
2019-02-08T23:56:57.638Z,17.90
2019-02-08T23:59:25.907Z,15.50
